Time;durP1;ratioP1;P1;durP2;ratioP2;P2;SDS_P1;SDS_P2;PMS_P1;PMS_P2;Temp;Humidity;BMP_temperature;BMP_pressure;BME280_temperature;BME280_humidity;BME280_pressure;Samples;Min_cycle;Max_cycle;Signal;HPM_P1;HPM_P2
2024/01/16 00:02:23;;;;;;;1.20;1.10;;;-0.10;99.90;;;;;;5155378;27;20042;-71
2024/01/16 00:04:49;;;;;;;1.17;1.08;;;-0.20;99.90;;;;;;5155211;27;20081;-71
2024/01/16 00:07:15;;;;;;;1.20;1.10;;;-0.20;99.90;;;;;;5155046;27;20090;-71
2024/01/16 00:09:40;;;;;;;1.20;1.10;;;-0.20;99.90;;;;;;5154967;27;20122;-71
2024/01/16 00:12:06;;;;;;;1.30;1.20;;;-0.20;99.90;;;;;;5155285;27;20043;-71
2024/01/16 00:14:36;;;;;;;1.20;1.10;;;-0.20;99.90;;;;;;5155110;27;20474;-71
2024/01/16 00:17:02;;;;;;;1.20;1.10;;;-0.20;99.90;;;;;;5156066;27;20034;-71
2024/01/16 00:19:28;;;;;;;1.10;1.00;;;-0.30;99.90;;;;;;5159437;27;20043;-71
2024/01/16 00:21:54;;;;;;;1.20;1.10;;;-0.10;99.90;;;;;;5159345;27;20276;-71
2024/01/16 00:24:19;;;;;;;1.20;1.10;;;-0.30;99.90;;;;;;5159549;27;20080;-71
2024/01/16 00:26:46;;;;;;;1.67;1.58;;;-0.40;99.90;;;;;;5159262;27;20478;-71
2024/01/16 00:29:12;;;;;;;1.20;1.10;;;-0.30;99.90;;;;;;5158948;27;20486;-71
2024/01/16 00:31:38;;;;;;;1.20;1.10;;;-0.50;99.90;;;;;;5159270;27;20052;-71
2024/01/16 00:34:04;;;;;;;1.30;1.20;;;-0.50;99.90;;;;;;5140984;27;20491;-71
2024/01/16 00:36:30;;;;;;;1.20;1.10;;;-0.50;99.90;;;;;;5159196;27;20050;-71
2024/01/16 00:38:56;;;;;;;1.20;1.10;;;-0.50;99.90;;;;;;5159102;27;20159;-71
2024/01/16 00:41:22;;;;;;;1.20;1.10;;;-0.50;99.90;;;;;;5158996;27;20284;-71
2024/01/16 00:43:47;;;;;;;1.10;1.00;;;-0.50;99.90;;;;;;5159247;27;20114;-71
2024/01/16 00:46:13;;;;;;;1.20;1.10;;;-0.50;99.90;;;;;;5159212;27;20042;-71
2024/01/16 00:48:39;;;;;;;1.17;1.08;;;-0.50;99.90;;;;;;5158810;27;20074;-71
2024/01/16 00:51:04;;;;;;;1.20;1.10;;;-0.50;99.90;;;;;;5158941;27;20052;-71
2024/01/16 00:53:30;;;;;;;1.20;1.10;;;-0.50;99.90;;;;;;5158814;27;20117;-71
2024/01/16 00:55:56;;;;;;;1.30;1.20;;;-0.60;99.90;;;;;;5158419;27;20038;-71
2024/01/16 00:58:22;;;;;;;1.27;1.17;;;-0.50;99.90;;;;;;5158707;27;20042;-71
2024/01/16 01:00:48;;;;;;;1.30;1.20;;;-0.60;99.90;;;;;;5159086;27;20126;-71
2024/01/16 01:03:13;;;;;;;3.60;3.40;;;-0.60;99.90;;;;;;5158647;27;20140;-71
2024/01/16 01:05:39;;;;;;;1.10;1.00;;;-0.60;99.90;;;;;;5158750;27;20043;-71
2024/01/16 01:08:05;;;;;;;1.20;1.10;;;-0.60;99.90;;;;;;5158549;27;20046;-71
2024/01/16 01:10:30;;;;;;;1.17;1.08;;;-0.60;99.90;;;;;;5158372;27;20085;-71
2024/01/16 01:12:56;;;;;;;1.20;1.10;;;-0.60;99.90;;;;;;5158404;27;20070;-71
2024/01/16 01:15:22;;;;;;;1.20;1.10;;;-0.50;99.90;;;;;;5158710;27;20103;-71
2024/01/16 01:17:51;;;;;;;1.20;1.10;;;-0.30;99.90;;;;;;5158307;27;20395;-71
2024/01/16 01:20:19;;;;;;;1.10;1.00;;;-0.50;99.90;;;;;;5157965;27;20090;-71
2024/01/16 01:22:45;;;;;;;1.13;1.02;;;-0.60;99.90;;;;;;5158384;27;20046;-71
2024/01/16 01:25:11;;;;;;;1.20;1.10;;;-0.60;99.90;;;;;;5158019;27;20511;-71
2024/01/16 01:27:38;;;;;;;1.20;1.10;;;-0.60;99.90;;;;;;5157837;27;20034;-71
2024/01/16 01:30:04;;;;;;;1.30;1.20;;;-0.60;99.90;;;;;;5157347;27;20125;-71
2024/01/16 01:32:30;;;;;;;1.40;1.30;;;-0.60;99.90;;;;;;5158465;27;20151;-71
2024/01/16 01:34:55;;;;;;;1.20;1.10;;;-0.70;99.90;;;;;;5158022;27;20126;-71
2024/01/16 01:37:21;;;;;;;1.20;1.10;;;0.90;99.90;;;;;;5158036;27;20047;-71
2024/01/16 01:39:46;;;;;;;1.30;1.20;;;-0.70;99.90;;;;;;5157916;27;20053;-71
2024/01/16 01:42:12;;;;;;;1.20;1.10;;;-0.70;99.90;;;;;;5157769;27;20046;-71
2024/01/16 01:44:37;;;;;;;1.20;1.10;;;-0.70;99.90;;;;;;5157853;27;20039;-71
2024/01/16 01:47:04;;;;;;;8.10;3.70;;;-0.80;99.90;;;;;;5157797;27;20078;-71
2024/01/16 01:49:31;;;;;;;1.30;1.20;;;-0.70;99.90;;;;;;5157397;27;20061;-71
2024/01/16 01:51:56;;;;;;;;;;;-0.70;99.90;;;;;;5158029;27;20323;-71
2024/01/16 01:54:23;;;;;;;1.30;1.20;;;-0.60;99.90;;;;;;5157172;27;19970;-71
2024/01/16 01:56:49;;;;;;;1.30;1.20;;;-0.60;99.90;;;;;;5157182;27;20062;-71
2024/01/16 01:59:18;;;;;;;1.30;1.20;;;-0.60;99.90;;;;;;5157209;27;20534;-71
2024/01/16 02:01:45;;;;;;;1.30;1.20;;;-0.60;99.90;;;;;;5157974;27;20078;-71
2024/01/16 02:04:14;;;;;;;1.20;1.10;;;-0.50;99.90;;;;;;5157701;27;20075;-71
2024/01/16 02:06:42;;;;;;;1.20;1.10;;;0.70;99.90;;;;;;5157339;27;20099;-71
2024/01/16 02:09:07;;;;;;;2.55;2.35;;;-0.60;99.90;;;;;;5157328;27;20057;-71
2024/01/16 02:11:33;;;;;;;1.20;1.10;;;-0.60;99.90;;;;;;5157160;27;20050;-71
2024/01/16 02:13:59;;;;;;;1.20;1.10;;;-0.60;99.90;;;;;;5139620;27;20050;-72
2024/01/16 02:16:24;;;;;;;1.20;1.10;;;-0.70;99.90;;;;;;5157117;27;20054;-71
2024/01/16 02:18:51;;;;;;;1.20;1.10;;;-0.70;99.90;;;;;;5157127;27;20046;-71
2024/01/16 02:21:21;;;;;;;;;;;-0.80;99.90;;;;;;5157545;27;20042;-71
2024/01/16 02:23:47;;;;;;;1.20;1.10;;;-0.80;99.90;;;;;;5157051;27;19926;-71
2024/01/16 02:26:16;;;;;;;1.20;1.10;;;-0.80;99.90;;;;;;5157368;27;20043;-71
2024/01/16 02:28:42;;;;;;;1.33;1.23;;;-0.90;99.90;;;;;;5157071;27;20041;-71
2024/01/16 02:31:08;;;;;;;1.30;1.20;;;-0.40;99.90;;;;;;5157179;27;20165;-71
2024/01/16 02:33:33;;;;;;;1.20;1.10;;;-1.00;99.90;;;;;;5156874;27;20385;-71
2024/01/16 02:35:59;;;;;;;1.30;1.20;;;-1.00;99.90;;;;;;5156722;27;20035;-71
2024/01/16 02:38:24;;;;;;;1.27;1.17;;;-1.10;99.90;;;;;;5156724;27;20042;-71
2024/01/16 02:40:51;;;;;;;1.20;1.10;;;-1.20;99.90;;;;;;5156146;27;20485;-71
2024/01/16 02:43:16;;;;;;;1.20;1.10;;;-1.20;99.90;;;;;;5157046;27;20113;-71
2024/01/16 02:45:42;;;;;;;1.30;1.20;;;-1.20;99.90;;;;;;5138899;27;20132;-71
2024/01/16 02:48:08;;;;;;;1.20;1.10;;;-1.20;99.90;;;;;;5156785;27;20089;-71
2024/01/16 02:50:33;;;;;;;1.20;1.10;;;-1.30;99.90;;;;;;5156309;27;20046;-71
2024/01/16 02:52:59;;;;;;;1.30;1.20;;;-1.20;99.90;;;;;;5156490;27;20038;-71
2024/01/16 02:55:25;;;;;;;1.20;1.10;;;-1.30;99.90;;;;;;5156255;27;20038;-71
2024/01/16 02:57:50;;;;;;;1.30;1.20;;;-1.10;99.90;;;;;;5156418;27;20378;-71
2024/01/16 03:00:17;;;;;;;1.20;1.10;;;-1.20;99.90;;;;;;5156346;27;20041;-71
2024/01/16 03:02:43;;;;;;;1.30;1.20;;;-1.10;99.90;;;;;;5156338;27;20043;-71
2024/01/16 03:05:09;;;;;;;1.20;1.10;;;-1.10;99.90;;;;;;5156269;27;20435;-71
2024/01/16 03:07:35;;;;;;;1.20;1.10;;;-1.00;99.90;;;;;;5156176;27;20046;-71
2024/01/16 03:10:01;;;;;;;1.30;1.20;;;-1.00;99.90;;;;;;5156125;27;20043;-71
2024/01/16 03:12:26;;;;;;;1.20;1.10;;;-0.90;99.90;;;;;;5156547;27;20038;-71
2024/01/16 03:14:53;;;;;;;1.30;1.20;;;-0.80;99.90;;;;;;5155981;27;20422;-71
2024/01/16 03:17:19;;;;;;;1.30;1.20;;;-0.80;99.90;;;;;;5156257;27;20057;-71
2024/01/16 03:19:44;;;;;;;1.27;1.17;;;-0.80;99.90;;;;;;5156008;27;20042;-71
2024/01/16 03:22:10;;;;;;;1.30;1.20;;;-0.70;99.90;;;;;;5155909;27;20039;-72
2024/01/16 03:24:36;;;;;;;1.20;1.10;;;-0.70;99.90;;;;;;5155770;27;20050;-71
2024/01/16 03:27:01;;;;;;;1.20;1.10;;;-0.80;99.90;;;;;;5156290;27;20046;-71
2024/01/16 03:29:27;;;;;;;3.80;3.50;;;-0.70;99.90;;;;;;5155745;27;20474;-71
2024/01/16 03:31:53;;;;;;;1.20;1.10;;;-0.70;99.90;;;;;;5156086;27;20039;-71
2024/01/16 03:34:19;;;;;;;1.25;1.15;;;-0.80;99.90;;;;;;5155676;27;20167;-71
2024/01/16 03:36:44;;;;;;;1.20;1.10;;;-0.90;99.90;;;;;;5155950;27;20038;-71
2024/01/16 03:39:11;;;;;;;1.20;1.10;;;-0.90;99.90;;;;;;5155491;27;20518;-71
2024/01/16 03:41:37;;;;;;;;;;;-0.90;99.90;;;;;;5156704;27;20398;-71
2024/01/16 03:44:03;;;;;;;1.10;1.00;;;-0.30;99.90;;;;;;5155463;27;19925;-71
2024/01/16 03:46:29;;;;;;;1.20;1.10;;;-1.00;99.90;;;;;;5155480;27;20118;-71
2024/01/16 03:48:54;;;;;;;1.20;1.10;;;-1.00;99.90;;;;;;5155184;27;20050;-71
2024/01/16 03:51:20;;;;;;;1.20;1.10;;;-1.00;99.90;;;;;;5155457;27;20466;-71
2024/01/16 03:53:46;;;;;;;1.20;1.10;;;-1.00;99.90;;;;;;5155031;27;20130;-71
2024/01/16 03:56:12;;;;;;;1.20;1.10;;;-1.00;99.90;;;;;;5155364;27;20046;-71
2024/01/16 03:58:40;;;;;;;1.13;1.02;;;-1.00;99.90;;;;;;5155428;27;20078;-71
2024/01/16 04:01:06;;;;;;;1.58;1.48;;;-1.00;99.90;;;;;;5155443;27;20042;-71
2024/01/16 04:03:32;;;;;;;1.10;1.00;;;-1.00;99.90;;;;;;5155357;27;20049;-71
2024/01/16 04:05:58;;;;;;;1.20;1.10;;;-1.00;99.90;;;;;;5155326;27;20038;-71
2024/01/16 04:08:23;;;;;;;1.20;1.10;;;-1.00;99.90;;;;;;5155265;27;20133;-71
2024/01/16 04:10:49;;;;;;;1.20;1.10;;;-1.00;99.90;;;;;;5155747;27;20041;-71
2024/01/16 04:13:14;;;;;;;1.20;1.10;;;-1.00;99.90;;;;;;5155315;27;20095;-71
2024/01/16 04:15:40;;;;;;;1.10;1.00;;;-1.00;99.90;;;;;;5155176;27;20035;-71
2024/01/16 04:18:06;;;;;;;1.20;1.10;;;-1.00;99.90;;;;;;5155210;27;20402;-71
2024/01/16 04:20:32;;;;;;;1.20;1.10;;;-1.00;99.90;;;;;;5155747;27;20043;-71
2024/01/16 04:22:58;;;;;;;1.20;1.10;;;-1.00;99.90;;;;;;5155149;27;20143;-71
2024/01/16 04:25:24;;;;;;;1.17;1.08;;;-1.00;99.90;;;;;;5155684;27;20042;-71
2024/01/16 04:27:50;;;;;;;1.20;1.10;;;-1.00;99.90;;;;;;5155155;27;20043;-71
2024/01/16 04:30:16;;;;;;;1.20;1.10;;;-1.00;99.90;;;;;;5155471;27;20400;-71
2024/01/16 04:32:41;;;;;;;1.30;1.20;;;-1.00;99.90;;;;;;5155192;27;20126;-71
2024/01/16 04:35:08;;;;;;;1.20;1.10;;;-1.00;99.90;;;;;;5155041;27;20034;-71
2024/01/16 04:37:34;;;;;;;1.20;1.10;;;-1.00;99.90;;;;;;5155076;27;20053;-71
2024/01/16 04:39:59;;;;;;;1.20;1.10;;;-1.00;99.90;;;;;;5154985;27;20050;-71
2024/01/16 04:42:25;;;;;;;1.10;1.00;;;-1.00;99.90;;;;;;5155063;27;20049;-71
2024/01/16 04:44:51;;;;;;;1.20;1.10;;;-1.00;99.90;;;;;;5154975;27;20078;-71
2024/01/16 04:47:16;;;;;;;1.20;1.10;;;-1.00;99.90;;;;;;5155015;27;20130;-71
2024/01/16 04:49:42;;;;;;;1.20;1.10;;;-1.00;99.90;;;;;;5154619;27;20497;-71
2024/01/16 04:52:08;;;;;;;1.20;1.10;;;-1.00;99.90;;;;;;5155062;27;20046;-71
2024/01/16 04:54:34;;;;;;;1.20;1.10;;;-1.00;99.90;;;;;;5154747;27;20493;-71
2024/01/16 04:56:59;;;;;;;1.30;1.20;;;-0.90;99.90;;;;;;5154891;27;20125;-71
2024/01/16 04:59:25;;;;;;;1.20;1.10;;;-0.90;99.90;;;;;;5154871;27;20538;-71
2024/01/16 05:01:51;;;;;;;1.25;1.15;;;-0.90;99.90;;;;;;5154838;27;20363;-71
2024/01/16 05:04:17;;;;;;;1.20;1.10;;;-0.90;99.90;;;;;;5155788;27;20094;-71
2024/01/16 05:06:42;;;;;;;1.43;1.33;;;-0.90;99.90;;;;;;5140093;27;20118;-71
2024/01/16 05:09:09;;;;;;;1.20;1.10;;;-1.00;99.90;;;;;;5158467;27;20046;-71
2024/01/16 05:11:35;;;;;;;1.20;1.10;;;-0.90;99.90;;;;;;5158940;27;20047;-71
2024/01/16 05:14:01;;;;;;;1.30;1.20;;;-0.80;99.90;;;;;;5158456;27;20038;-71
2024/01/16 05:16:27;;;;;;;1.20;1.10;;;-0.70;99.90;;;;;;5158629;27;20038;-71
2024/01/16 05:18:55;;;;;;;1.30;1.20;;;-0.80;99.90;;;;;;5158362;27;20046;-71
2024/01/16 05:21:21;;;;;;;1.20;1.10;;;-0.90;99.90;;;;;;5158236;27;20034;-71
2024/01/16 05:23:46;;;;;;;1.30;1.20;;;-0.90;99.90;;;;;;5158172;27;20054;-71
2024/01/16 05:26:12;;;;;;;1.20;1.10;;;-0.90;99.90;;;;;;5158620;27;20122;-71
2024/01/16 05:28:41;;;;;;;1.20;1.10;;;-0.90;99.90;;;;;;5158181;27;20042;-71
2024/01/16 05:31:07;;;;;;;1.20;1.10;;;-0.90;99.90;;;;;;5158104;27;20050;-71
2024/01/16 05:33:32;;;;;;;1.30;1.20;;;-0.60;99.90;;;;;;5158100;27;20038;-71
2024/01/16 05:35:58;;;;;;;1.20;1.10;;;-0.80;99.90;;;;;;5157923;27;20126;-71
2024/01/16 05:38:24;;;;;;;1.30;1.20;;;-0.90;99.90;;;;;;5157907;27;20039;-71
2024/01/16 05:40:49;;;;;;;1.20;1.10;;;-0.90;99.90;;;;;;5157914;27;20443;-71
2024/01/16 05:43:15;;;;;;;1.20;1.10;;;-0.90;99.90;;;;;;5158229;27;20054;-71
2024/01/16 05:45:40;;;;;;;1.20;1.10;;;-0.90;99.90;;;;;;5158130;27;20046;-72
2024/01/16 05:48:10;;;;;;;1.20;1.10;;;-0.90;99.90;;;;;;5157513;27;20050;-71
2024/01/16 05:50:36;;;;;;;1.20;1.10;;;-0.90;99.90;;;;;;5157680;27;20127;-71
2024/01/16 05:53:02;;;;;;;1.20;1.10;;;-1.00;99.90;;;;;;5157537;27;20046;-71
2024/01/16 05:55:32;;;;;;;1.30;1.20;;;-1.00;99.90;;;;;;5157578;27;20359;-71
2024/01/16 05:57:59;;;;;;;1.20;1.10;;;-0.90;99.90;;;;;;5157576;27;20135;-71
2024/01/16 06:00:25;;;;;;;1.10;1.00;;;-1.00;99.90;;;;;;5157752;27;20050;-71
2024/01/16 06:02:50;;;;;;;1.20;1.10;;;0.00;99.90;;;;;;5157375;27;20045;-71
2024/01/16 06:05:16;;;;;;;1.30;1.20;;;-1.00;99.90;;;;;;5157564;27;20030;-72
2024/01/16 06:07:41;;;;;;;1.20;1.10;;;-1.00;99.90;;;;;;5138998;27;20492;-71
2024/01/16 06:10:08;;;;;;;1.30;1.20;;;-1.00;99.90;;;;;;5157384;27;20125;-71
2024/01/16 06:12:34;;;;;;;1.20;1.10;;;-1.00;99.90;;;;;;5157321;27;20095;-72
2024/01/16 06:14:59;;;;;;;1.30;1.20;;;-0.40;99.90;;;;;;5156994;27;20047;-71
2024/01/16 06:17:25;;;;;;;1.20;1.10;;;-1.00;99.90;;;;;;5138769;27;20054;-71
2024/01/16 06:19:50;;;;;;;1.20;1.10;;;-0.40;99.90;;;;;;5156954;27;20035;-72
2024/01/16 06:22:16;;;;;;;1.20;1.10;;;-1.00;99.90;;;;;;5156117;27;20122;-71
2024/01/16 06:24:41;;;;;;;1.20;1.10;;;-1.00;99.90;;;;;;5156460;27;20402;-73
2024/01/16 06:27:07;;;;;;;1.20;1.10;;;-0.90;99.90;;;;;;5156997;27;20138;-73
2024/01/16 06:29:33;;;;;;;1.20;1.10;;;-1.00;99.90;;;;;;5156920;27;20046;-72
2024/01/16 06:31:59;;;;;;;1.20;1.10;;;-0.90;99.90;;;;;;5137728;27;20031;-71
2024/01/16 06:34:24;;;;;;;1.20;1.10;;;-0.90;99.90;;;;;;5156609;27;20486;-71
2024/01/16 06:36:50;;;;;;;1.20;1.10;;;-0.90;99.90;;;;;;5156754;27;20035;-70
2024/01/16 06:39:15;;;;;;;1.20;1.10;;;-0.90;99.90;;;;;;5156480;27;20092;-72
2024/01/16 06:41:41;;;;;;;1.20;1.10;;;-0.50;99.90;;;;;;5157069;27;20039;-70
2024/01/16 06:44:07;;;;;;;1.20;1.10;;;-0.90;99.90;;;;;;5156622;27;20053;-73
2024/01/16 06:46:33;;;;;;;1.10;1.00;;;-0.90;99.90;;;;;;5156706;27;20122;-73
2024/01/16 06:48:59;;;;;;;1.20;1.10;;;-0.90;99.90;;;;;;5156028;27;20049;-73
2024/01/16 06:51:24;;;;;;;1.10;1.00;;;-0.90;99.90;;;;;;5156646;27;20114;-77
2024/01/16 06:53:50;;;;;;;1.20;1.10;;;-0.90;99.90;;;;;;5157207;27;20541;-71
2024/01/16 06:56:16;;;;;;;1.20;1.10;;;-0.90;99.90;;;;;;5156711;27;20083;-72
2024/01/16 06:58:42;;;;;;;1.10;1.00;;;-0.90;99.90;;;;;;5156545;27;20470;-72
2024/01/16 07:01:09;;;;;;;1.20;1.10;;;-0.90;99.90;;;;;;5156327;27;20046;-70
2024/01/16 07:03:35;;;;;;;1.10;1.00;;;-0.90;99.90;;;;;;5156463;27;20078;-73
2024/01/16 07:06:01;;;;;;;1.20;1.10;;;-0.80;99.90;;;;;;5156186;27;20391;-67
2024/01/16 07:08:26;;;;;;;1.30;1.20;;;-0.80;99.90;;;;;;5156479;27;20098;-73
2024/01/16 07:10:52;;;;;;;1.20;1.10;;;-0.40;99.90;;;;;;5156167;27;20486;-75
2024/01/16 07:13:19;;;;;;;1.20;1.10;;;-0.80;99.90;;;;;;5155827;27;20042;-72
2024/01/16 07:15:44;;;;;;;1.20;1.10;;;-0.80;99.90;;;;;;5156139;27;20038;-71
2024/01/16 07:18:10;;;;;;;1.20;1.10;;;-0.80;99.90;;;;;;5137593;27;20122;-72
2024/01/16 07:20:35;;;;;;;1.10;1.00;;;-0.80;99.90;;;;;;5155903;27;20054;-73
2024/01/16 07:23:01;;;;;;;1.10;1.00;;;-0.80;99.90;;;;;;5155916;27;20042;-71
2024/01/16 07:25:27;;;;;;;1.20;1.10;;;-0.80;99.90;;;;;;5156350;27;20082;-72
2024/01/16 07:27:52;;;;;;;1.20;1.10;;;-0.80;99.90;;;;;;5155603;27;20113;-73
2024/01/16 07:30:18;;;;;;;1.20;1.10;;;-0.80;99.90;;;;;;5155799;27;20045;-71
2024/01/16 07:32:44;;;;;;;1.20;1.10;;;-0.70;99.90;;;;;;5155792;27;20091;-71
2024/01/16 07:35:09;;;;;;;1.43;1.20;;;-0.80;99.90;;;;;;5155651;27;20371;-73
2024/01/16 07:37:35;;;;;;;1.15;1.05;;;-0.80;99.90;;;;;;5155615;27;20042;-71
2024/01/16 07:40:00;;;;;;;1.20;1.10;;;-0.80;99.90;;;;;;5156064;27;20050;-73
2024/01/16 07:42:26;;;;;;;1.20;1.10;;;-0.50;99.90;;;;;;5155466;27;20466;-73
2024/01/16 07:44:54;;;;;;;1.10;1.00;;;-0.80;99.90;;;;;;5155852;27;20084;-74
2024/01/16 07:47:19;;;;;;;1.10;1.00;;;-0.80;99.90;;;;;;5155531;27;20054;-71
2024/01/16 07:49:45;;;;;;;1.20;1.10;;;-0.70;99.90;;;;;;5155615;27;20053;-74
2024/01/16 07:52:12;;;;;;;1.33;1.23;;;-0.70;99.90;;;;;;5155123;27;20405;-73
2024/01/16 07:54:37;;;;;;;1.20;1.10;;;-0.70;99.90;;;;;;5155388;27;20085;-71
2024/01/16 07:57:03;;;;;;;1.20;1.10;;;-0.50;99.90;;;;;;5155525;27;20512;-72
2024/01/16 07:59:29;;;;;;;1.20;1.10;;;-0.70;99.90;;;;;;5155386;27;20046;-72
2024/01/16 08:01:55;;;;;;;1.10;1.00;;;-0.70;99.90;;;;;;5155375;27;20088;-71
2024/01/16 08:04:20;;;;;;;1.20;1.10;;;-0.80;99.90;;;;;;5155296;27;20046;-72
2024/01/16 08:06:46;;;;;;;1.20;1.10;;;-0.60;99.90;;;;;;5155285;27;20034;-71
2024/01/16 08:09:12;;;;;;;1.10;1.00;;;-0.50;99.90;;;;;;5137073;27;20051;-71
2024/01/16 08:11:39;;;;;;;1.20;1.10;;;-0.60;99.90;;;;;;5155310;27;20126;-72
2024/01/16 08:14:05;;;;;;;1.20;1.10;;;-0.60;99.90;;;;;;5155317;27;20456;-74
2024/01/16 08:16:31;;;;;;;1.20;1.10;;;-0.60;99.90;;;;;;5155163;27;20039;-73
2024/01/16 08:18:56;;;;;;;1.15;1.05;;;-0.60;99.90;;;;;;5155173;27;20123;-74
2024/01/16 08:21:22;;;;;;;1.17;1.08;;;-0.70;99.90;;;;;;5155168;27;20087;-73
2024/01/16 08:23:47;;;;;;;1.20;1.10;;;-0.60;99.90;;;;;;5154971;27;20452;-71
2024/01/16 08:26:13;;;;;;;1.20;1.10;;;-0.60;99.90;;;;;;5154950;27;20049;-72
2024/01/16 08:28:39;;;;;;;1.10;1.00;;;-0.60;99.90;;;;;;5155789;27;20039;-74
2024/01/16 08:31:04;;;;;;;1.20;1.10;;;-0.50;99.90;;;;;;5155363;27;20099;-73
2024/01/16 08:33:31;;;;;;;1.13;1.02;;;-0.50;99.90;;;;;;5155178;27;20091;-71
2024/01/16 08:35:57;;;;;;;1.25;1.15;;;-0.40;99.90;;;;;;5154904;27;20043;-71
2024/01/16 08:38:22;;;;;;;1.20;1.10;;;0.90;99.90;;;;;;5155094;27;20444;-71
2024/01/16 08:40:48;;;;;;;1.30;1.20;;;-0.30;99.90;;;;;;5158839;27;20038;-71
2024/01/16 08:43:14;;;;;;;1.20;1.10;;;-0.30;99.90;;;;;;5159024;27;20074;-71
2024/01/16 08:45:39;;;;;;;1.42;1.20;;;-0.30;99.90;;;;;;5159054;27;20041;-71
2024/01/16 08:48:05;;;;;;;1.10;1.00;;;-0.20;99.90;;;;;;5158955;27;20503;-71
2024/01/16 08:50:31;;;;;;;1.20;1.10;;;-0.20;99.90;;;;;;5159141;27;20058;-72
2024/01/16 08:52:56;;;;;;;1.20;1.10;;;-0.20;99.90;;;;;;5158806;27;20039;-71
2024/01/16 08:55:22;;;;;;;1.20;1.10;;;-0.10;99.90;;;;;;5158764;27;20523;-71
2024/01/16 08:57:47;;;;;;;1.20;1.10;;;0.00;99.90;;;;;;5159098;27;20085;-71
2024/01/16 09:00:13;;;;;;;1.30;1.20;;;0.00;99.90;;;;;;5158767;27;20500;-71
2024/01/16 09:02:40;;;;;;;1.10;1.00;;;0.10;99.90;;;;;;5158643;27;20053;-71
2024/01/16 09:05:06;;;;;;;1.48;1.38;;;0.20;99.90;;;;;;5158795;27;20118;-72
2024/01/16 09:07:32;;;;;;;1.10;1.00;;;0.20;99.90;;;;;;5139807;27;20039;-71
2024/01/16 09:09:58;;;;;;;1.10;1.00;;;0.30;99.90;;;;;;5158553;27;20068;-70
2024/01/16 09:12:23;;;;;;;1.20;1.10;;;0.40;99.90;;;;;;5158525;27;20043;-70
2024/01/16 09:14:49;;;;;;;2.25;2.05;;;0.40;99.90;;;;;;5158356;27;20462;-73
2024/01/16 09:17:15;;;;;;;1.30;1.20;;;0.40;99.90;;;;;;5158135;27;20039;-72
2024/01/16 09:19:41;;;;;;;1.20;1.10;;;1.80;99.90;;;;;;5158366;27;20034;-72
2024/01/16 09:22:06;;;;;;;1.10;1.00;;;0.50;99.90;;;;;;5158197;27;20057;-71
2024/01/16 09:24:32;;;;;;;1.15;1.05;;;0.50;99.90;;;;;;5158172;27;20039;-70
2024/01/16 09:26:58;;;;;;;1.20;1.10;;;0.50;99.90;;;;;;5158110;27;20385;-71
2024/01/16 09:29:24;;;;;;;1.15;1.05;;;0.50;99.90;;;;;;5157819;27;20451;-71
2024/01/16 09:31:50;;;;;;;1.13;1.02;;;0.50;99.90;;;;;;5158318;27;20099;-70
2024/01/16 09:34:17;;;;;;;1.20;1.10;;;0.50;99.90;;;;;;5157987;27;20050;-75
2024/01/16 09:36:42;;;;;;;1.25;1.15;;;0.50;99.90;;;;;;5157833;27;20057;-75
2024/01/16 09:39:08;;;;;;;1.40;1.30;;;0.60;99.90;;;;;;5158408;27;20043;-75
2024/01/16 09:41:45;;;;;;;1.10;1.00;;;0.60;99.90;;;;;;5139593;27;20035;-75
2024/01/16 09:44:10;;;;;;;1.40;1.30;;;0.60;99.90;;;;;;5157862;27;20038;-73
2024/01/16 09:46:38;;;;;;;1.10;1.00;;;0.60;99.90;;;;;;5157829;27;20168;-75
2024/01/16 09:49:04;;;;;;;1.10;1.00;;;0.70;99.90;;;;;;5157587;27;20355;-71
2024/01/16 09:51:30;;;;;;;3.85;1.50;;;0.70;99.90;;;;;;5157167;27;20050;-73
2024/01/16 09:53:56;;;;;;;1.20;1.10;;;0.80;99.90;;;;;;5158123;27;20121;-76
2024/01/16 09:56:27;;;;;;;1.20;1.10;;;0.80;99.90;;;;;;5154435;27;20043;-75
2024/01/16 09:59:01;;;;;;;1.10;1.00;;;0.90;99.90;;;;;;5157566;27;20080;-75
2024/01/16 10:01:28;;;;;;;1.10;1.00;;;1.00;99.90;;;;;;5157164;27;20077;-66
2024/01/16 10:03:53;;;;;;;8.50;4.63;;;1.00;99.90;;;;;;5157198;27;20039;-72
2024/01/16 10:06:20;;;;;;;1.20;1.10;;;1.10;99.90;;;;;;5157852;27;20035;-69
2024/01/16 10:08:46;;;;;;;2.00;1.90;;;1.10;99.90;;;;;;5156945;27;20045;-69
2024/01/16 10:11:12;;;;;;;1.20;1.10;;;1.10;99.90;;;;;;5157332;27;20502;-72
2024/01/16 10:13:38;;;;;;;1.20;1.10;;;1.10;99.90;;;;;;5157256;27;20089;-72
2024/01/16 10:16:04;;;;;;;1.10;1.00;;;2.40;99.90;;;;;;5157228;27;20038;-72
2024/01/16 10:18:30;;;;;;;1.10;1.00;;;1.20;99.90;;;;;;5157146;27;20294;-72
2024/01/16 10:20:56;;;;;;;1.10;1.00;;;1.30;99.90;;;;;;5157395;27;20046;-72
2024/01/16 10:23:30;;;;;;;1.20;1.10;;;1.30;99.90;;;;;;5157073;27;20279;-72
2024/01/16 10:26:06;;;;;;;1.20;1.10;;;1.30;99.90;;;;;;5157050;27;20351;-69
2024/01/16 10:28:34;;;;;;;1.20;1.10;;;0.70;99.90;;;;;;5156944;27;20043;-72
2024/01/16 10:31:16;;;;;;;1.58;1.48;;;1.20;99.90;;;;;;5156867;27;20046;-70
2024/01/16 10:33:42;;;;;;;1.10;1.00;;;1.30;99.90;;;;;;5156824;27;20504;-69
2024/01/16 10:36:10;;;;;;;1.10;1.00;;;1.30;99.90;;;;;;5157198;27;20038;-69
2024/01/16 10:38:39;;;;;;;1.10;1.00;;;1.30;99.90;;;;;;5156794;27;20092;-69
2024/01/16 10:41:13;;;;;;;1.50;1.40;;;1.40;99.90;;;;;;5156680;27;20095;-72
2024/01/16 10:43:39;;;;;;;1.10;1.00;;;1.20;99.90;;;;;;5156617;27;20110;-72
2024/01/16 10:46:15;;;;;;;4.97;3.85;;;1.20;99.90;;;;;;5156619;27;20100;-71
2024/01/16 10:49:03;;;;;;;1.65;1.55;;;1.20;99.90;;;;;;5156568;27;20095;-69
2024/01/16 10:51:30;;;;;;;1.20;1.10;;;1.20;99.90;;;;;;5156614;27;20089;-69
2024/01/16 10:54:05;;;;;;;1.20;1.10;;;1.30;99.90;;;;;;5156144;27;20047;-72
2024/01/16 10:56:32;;;;;;;1.10;1.00;;;1.30;99.90;;;;;;5156162;27;20050;-69
2024/01/16 10:59:17;;;;;;;1.20;1.10;;;1.40;99.90;;;;;;5156062;27;20076;-71
2024/01/16 11:01:46;;;;;;;1.10;1.00;;;1.40;99.90;;;;;;5155718;27;20051;-72
2024/01/16 11:04:12;;;;;;;1.10;1.00;;;1.40;99.90;;;;;;5156203;27;20046;-69
2024/01/16 11:06:40;;;;;;;1.23;1.13;;;1.40;99.90;;;;;;5155866;27;20042;-69
2024/01/16 11:09:07;;;;;;;1.10;1.00;;;1.50;99.90;;;;;;5156185;27;20565;-69
2024/01/16 11:11:34;;;;;;;1.40;1.30;;;1.80;99.90;;;;;;5156155;27;20158;-69
2024/01/16 11:14:02;;;;;;;;;;;1.50;99.90;;;;;;5156888;27;20043;-69
2024/01/16 11:16:29;;;;;;;;;;;1.50;99.90;;;;;;5156431;27;19925;-70
2024/01/16 11:18:54;;;;;;;1.23;1.13;;;1.50;99.90;;;;;;5155960;27;19919;-68
2024/01/16 11:21:20;;;;;;;1.10;1.00;;;1.50;99.90;;;;;;5155869;27;20071;-70
2024/01/16 11:23:47;;;;;;;1.20;1.10;;;1.50;99.90;;;;;;5156012;27;20126;-72
2024/01/16 11:26:32;;;;;;;1.10;1.00;;;1.50;99.90;;;;;;5155819;27;20378;-73
2024/01/16 11:29:01;;;;;;;0.90;0.90;;;1.50;99.90;;;;;;5137233;27;20401;-73
2024/01/16 11:31:30;;;;;;;1.10;1.00;;;1.50;99.90;;;;;;5155469;27;20510;-69
2024/01/16 11:33:55;;;;;;;1.10;1.00;;;2.60;99.90;;;;;;5155415;27;20091;-73
2024/01/16 11:36:46;;;;;;;1.10;1.00;;;1.40;99.90;;;;;;5155342;27;20085;-72
2024/01/16 11:39:27;;;;;;;1.30;1.20;;;1.40;99.90;;;;;;5155186;27;20038;-73
2024/01/16 11:41:57;;;;;;;1.10;1.00;;;1.40;99.90;;;;;;5155612;27;20043;-69
2024/01/16 11:44:53;;;;;;;1.10;1.00;;;1.70;99.90;;;;;;5155311;27;20371;-68
2024/01/16 11:47:21;;;;;;;0.90;0.90;;;1.40;99.90;;;;;;5159899;27;20045;-72
2024/01/16 11:49:51;;;;;;;1.08;1.00;;;1.70;99.90;;;;;;5155809;27;20051;-69
2024/01/16 11:52:43;;;;;;;1.20;1.10;;;2.90;99.90;;;;;;5155511;27;20070;-69
2024/01/16 11:55:33;;;;;;;1.10;1.00;;;1.50;99.90;;;;;;5155775;27;20082;-71
2024/01/16 11:58:10;;;;;;;1.10;1.00;;;1.50;99.90;;;;;;5155632;27;20046;-69
2024/01/16 12:00:40;;;;;;;1.10;1.00;;;1.50;99.90;;;;;;5155545;27;20054;-70
2024/01/16 12:03:07;;;;;;;1.10;1.00;;;1.50;99.90;;;;;;5155334;27;20120;-73
2024/01/16 12:05:33;;;;;;;;;;;1.50;99.90;;;;;;5155850;27;20134;-65
2024/01/16 12:08:01;;;;;;;1.08;1.00;;;1.40;99.90;;;;;;5155744;27;19918;-76
2024/01/16 12:10:27;;;;;;;1.20;1.10;;;1.50;99.90;;;;;;5155593;27;20054;-70
2024/01/16 12:13:00;;;;;;;1.10;1.00;;;1.50;99.90;;;;;;5155215;27;20058;-72
2024/01/16 12:15:26;;;;;;;1.10;1.00;;;1.50;99.90;;;;;;5140908;27;20035;-69
2024/01/16 12:17:59;;;;;;;1.20;1.10;;;1.50;99.90;;;;;;5159273;27;20478;-73
2024/01/16 12:20:31;;;;;;;1.20;1.10;;;1.50;99.90;;;;;;5159538;27;20082;-75
2024/01/16 12:23:04;;;;;;;1.10;1.00;;;1.60;99.90;;;;;;5159313;27;20038;-73
2024/01/16 12:25:34;;;;;;;1.08;1.00;;;1.50;99.90;;;;;;5159206;27;20430;-73
2024/01/16 12:28:10;;;;;;;1.10;1.00;;;1.60;99.90;;;;;;5159434;27;20050;-70
2024/01/16 12:30:37;;;;;;;1.10;1.00;;;2.30;99.90;;;;;;5159144;27;20042;-70
2024/01/16 12:33:09;;;;;;;1.10;1.00;;;1.90;99.90;;;;;;5159921;27;20092;-71
2024/01/16 12:35:40;;;;;;;1.10;1.00;;;1.60;99.90;;;;;;5159517;27;20043;-69
2024/01/16 12:38:10;;;;;;;1.13;1.02;;;1.60;99.90;;;;;;5159161;27;20053;-71
2024/01/16 12:40:39;;;;;;;1.02;1.00;;;2.10;99.90;;;;;;5158801;27;20049;-69
2024/01/16 12:43:17;;;;;;;1.10;1.00;;;1.40;99.90;;;;;;5158826;27;20085;-69
2024/01/16 12:45:44;;;;;;;1.10;1.00;;;2.30;99.90;;;;;;5159292;27;20087;-68
2024/01/16 12:48:10;;;;;;;1.10;1.00;;;2.20;99.90;;;;;;5158994;27;20394;-71
2024/01/16 12:50:37;;;;;;;1.10;1.00;;;2.20;99.90;;;;;;5159281;27;20046;-71